Time;durP1;ratioP1;P1;durP2;ratioP2;P2;SDS_P1;SDS_P2;PMS_P1;PMS_P2;Temp;Humidity;BMP_temperature;BMP_pressure;BME280_temperature;BME280_humidity;BME280_pressure;Samples;Min_cycle;Max_cycle;Signal;HPM_P1;HPM_P2
2022/04/29 00:00:36;;;;;;;;;;;16.10;37.50;;;;;;2357497;53;20130;-72
2022/04/29 00:03:02;;;;;;;;;;;16.00;37.50;;;;;;2377629;54;20517;-71
2022/04/29 00:05:29;;;;;;;;;;;16.00;37.50;;;;;;2377933;54;20620;-72
2022/04/29 00:07:55;;;;;;;;;;;16.00;37.50;;;;;;2630768;52;20386;-69
2022/04/29 00:10:23;;;;;;;;;;;16.00;37.50;;;;;;2377587;54;20105;-70
2022/04/29 00:12:49;;;;;;;;;;;16.00;37.60;;;;;;2376881;53;20323;-74
2022/04/29 00:15:17;;;;;;;;;;;15.90;37.50;;;;;;2383675;53;20408;-71
2022/04/29 00:17:44;;;;;;;;;;;15.90;37.50;;;;;;2359091;53;20614;-70
2022/04/29 00:20:10;;;;;;;;;;;15.90;37.50;;;;;;2380473;53;20105;-72
2022/04/29 00:22:36;;;;;;;;;;;15.90;37.50;;;;;;2381152;53;20241;-72
2022/04/29 00:25:05;;;;;;;;;;;15.90;37.60;;;;;;2376254;53;20073;-71
2022/04/29 00:27:31;;;;;;;;;;;15.80;37.50;;;;;;2536455;52;20552;-74
2022/04/29 00:29:57;;;;;;;;;;;15.80;37.60;;;;;;2377701;54;20664;-72
2022/04/29 00:32:24;;;;;;;;;;;15.80;37.70;;;;;;2459393;52;20074;-70
2022/04/29 00:34:50;;;;;;;;;;;15.80;37.80;;;;;;2416862;52;20090;-72
2022/04/29 00:37:17;;;;;;;;;;;15.70;37.70;;;;;;2375814;53;20117;-72
2022/04/29 00:39:43;;;;;;;;;;;15.70;37.80;;;;;;2379180;52;20070;-72
2022/04/29 00:42:10;;;;;;;;;;;15.70;37.80;;;;;;2375158;53;20121;-71
2022/04/29 00:44:40;;;;;;;;;;;15.70;37.90;;;;;;2629308;52;20575;-72
2022/04/29 00:47:10;;;;;;;;;;;15.70;37.90;;;;;;2627296;52;20664;-70
2022/04/29 00:49:36;;;;;;;;;;;15.60;37.90;;;;;;2380155;53;20082;-71
2022/04/29 00:52:05;;;;;;;;;;;15.60;37.90;;;;;;2363927;53;20481;-72
2022/04/29 00:54:33;;;;;;;;;;;15.50;37.90;;;;;;2627527;52;20117;-72
2022/04/29 00:56:59;;;;;;;;;;;15.50;38.00;;;;;;2374718;53;20069;-70
2022/04/29 00:59:31;;;;;;;;;;;15.50;38.00;;;;;;2377229;54;20054;-72
2022/04/29 01:01:57;;;;;;;;;;;15.50;38.10;;;;;;2586713;52;20322;-75
2022/04/29 01:04:35;;;;;;;;;;;15.50;38.10;;;;;;2377713;54;20669;-74
2022/04/29 01:07:02;;;;;;;;;;;15.40;38.10;;;;;;2630995;52;20672;-71
2022/04/29 01:09:29;;;;;;;;;;;15.30;38.00;;;;;;2510855;52;20781;-72
2022/04/29 01:11:55;;;;;;;;;;;15.30;38.00;;;;;;2377202;54;20521;-74
2022/04/29 01:14:21;;;;;;;;;;;15.30;38.00;;;;;;2377536;53;20061;-71
2022/04/29 01:16:48;;;;;;;;;;;15.20;38.10;;;;;;2631019;52;20185;-71
2022/04/29 01:19:15;;;;;;;;;;;15.20;38.10;;;;;;2377497;53;20071;-71
2022/04/29 01:21:41;;;;;;;;;;;15.20;38.20;;;;;;2631083;52;20633;-72
2022/04/29 01:24:08;;;;;;;;;;;15.10;38.20;;;;;;2377149;53;20125;-70
2022/04/29 01:26:34;;;;;;;;;;;15.10;38.20;;;;;;2377177;54;20141;-72
2022/04/29 01:29:00;;;;;;;;;;;15.00;38.10;;;;;;2631227;52;20054;-71
2022/04/29 01:31:27;;;;;;;;;;;15.00;38.20;;;;;;2468837;52;20137;-71
2022/04/29 01:33:53;;;;;;;;;;;14.90;38.20;;;;;;2377170;54;20593;-71
2022/04/29 01:36:19;;;;;;;;;;;14.80;38.10;;;;;;2377960;53;20092;-70
2022/04/29 01:38:46;;;;;;;;;;;14.80;38.20;;;;;;2380713;53;20153;-72
2022/04/29 01:41:13;;;;;;;;;;;14.70;38.20;;;;;;2384789;52;20373;-72
2022/04/29 01:43:39;;;;;;;;;;;14.60;38.20;;;;;;2376903;54;20420;-71
2022/04/29 01:46:06;;;;;;;;;;;14.50;38.20;;;;;;2376256;53;20135;-71
2022/04/29 01:48:32;;;;;;;;;;;14.50;38.30;;;;;;2631222;52;20114;-71
2022/04/29 01:50:59;;;;;;;;;;;14.40;38.30;;;;;;2376991;53;20368;-70
2022/04/29 01:53:25;;;;;;;;;;;14.30;38.30;;;;;;2630639;52;20637;-70
2022/04/29 01:55:52;;;;;;;;;;;14.20;38.30;;;;;;2377365;54;20173;-72
2022/04/29 01:58:18;;;;;;;;;;;14.20;38.40;;;;;;2377033;53;20086;-70
2022/04/29 02:00:44;;;;;;;;;;;14.10;38.40;;;;;;2630918;52;20181;-70
2022/04/29 02:03:11;;;;;;;;;;;14.00;38.40;;;;;;2377278;53;20090;-71
2022/04/29 02:05:37;;;;;;;;;;;14.00;38.60;;;;;;2630548;52;20517;-71
2022/04/29 02:08:03;;;;;;;;;;;13.90;38.60;;;;;;2609893;52;20110;-72
2022/04/29 02:10:29;;;;;;;;;;;13.80;38.70;;;;;;2375317;54;20073;-72
2022/04/29 02:12:56;;;;;;;;;;;13.80;38.80;;;;;;2375219;54;20075;-71
2022/04/29 02:15:22;;;;;;;;;;;13.70;38.80;;;;;;2375904;53;20082;-70
2022/04/29 02:17:48;;;;;;;;;;;13.60;38.80;;;;;;2375859;52;20118;-72
2022/04/29 02:20:17;;;;;;;;;;;13.50;38.80;;;;;;2375911;53;20097;-72
2022/04/29 02:22:43;;;;;;;;;;;13.50;38.90;;;;;;2374875;53;20189;-72
2022/04/29 02:25:09;;;;;;;;;;;13.50;39.60;;;;;;2375375;54;20140;-70
2022/04/29 02:27:38;;;;;;;;;;;13.40;39.10;;;;;;2451691;52;20487;-72
2022/04/29 02:30:06;;;;;;;;;;;13.30;39.10;;;;;;2375424;54;20121;-70
2022/04/29 02:32:33;;;;;;;;;;;13.30;39.20;;;;;;2375327;54;20061;-71
2022/04/29 02:35:00;;;;;;;;;;;13.30;39.30;;;;;;2374381;53;20076;-71
2022/04/29 02:37:27;;;;;;;;;;;13.20;39.30;;;;;;2379400;53;20082;-69
2022/04/29 02:39:53;;;;;;;;;;;13.20;39.40;;;;;;2626958;52;20085;-72
2022/04/29 02:42:20;;;;;;;;;;;13.20;39.50;;;;;;2376747;53;20420;-72
2022/04/29 02:44:46;;;;;;;;;;;13.00;39.40;;;;;;2370189;53;20123;-72
2022/04/29 02:47:14;;;;;;;;;;;13.00;39.50;;;;;;2426802;52;20366;-71
2022/04/29 02:49:41;;;;;;;;;;;13.00;39.60;;;;;;2371301;53;20070;-71
2022/04/29 02:52:08;;;;;;;;;;;12.90;39.60;;;;;;2578723;52;20117;-70
2022/04/29 02:54:35;;;;;;;;;;;12.90;39.70;;;;;;2628775;52;20069;-70
2022/04/29 02:57:01;;;;;;;;;;;12.90;39.80;;;;;;2375736;54;20141;-71
2022/04/29 02:59:28;;;;;;;;;;;12.80;39.90;;;;;;2509136;52;20066;-71
2022/04/29 03:01:55;;;;;;;;;;;12.80;40.00;;;;;;2374924;53;20069;-71
2022/04/29 03:04:21;;;;;;;;;;;12.80;40.10;;;;;;2378064;53;20129;-72
2022/04/29 03:06:47;;;;;;;;;;;12.80;40.10;;;;;;2375321;54;20077;-70
2022/04/29 03:09:13;;;;;;;;;;;12.70;40.10;;;;;;2378835;53;20086;-71
2022/04/29 03:11:42;;;;;;;;;;;12.80;40.30;;;;;;2589486;52;20078;-71
2022/04/29 03:14:08;;;;;;;;;;;12.70;40.20;;;;;;2361730;52;20130;-70
2022/04/29 03:16:35;;;;;;;;;;;12.70;40.30;;;;;;2375496;53;20070;-72
2022/04/29 03:19:03;;;;;;;;;;;12.60;40.20;;;;;;2381786;53;20370;-71
2022/04/29 03:21:29;;;;;;;;;;;12.60;40.20;;;;;;2592641;52;20624;-71
2022/04/29 03:23:55;;;;;;;;;;;12.60;40.30;;;;;;2374682;53;20161;-72
2022/04/29 03:26:21;;;;;;;;;;;12.50;40.30;;;;;;2375496;54;20074;-71
2022/04/29 03:28:48;;;;;;;;;;;12.60;40.40;;;;;;2378378;53;20133;-71
2022/04/29 03:31:14;;;;;;;;;;;12.50;40.40;;;;;;2376076;53;20077;-71
2022/04/29 03:33:40;;;;;;;;;;;12.50;40.40;;;;;;2471162;52;20101;-71
2022/04/29 03:36:07;;;;;;;;;;;12.40;40.40;;;;;;2381781;53;20503;-70
2022/04/29 03:38:33;;;;;;;;;;;12.40;40.50;;;;;;2369677;53;20304;-72
2022/04/29 03:41:00;;;;;;;;;;;12.40;40.50;;;;;;2431586;52;20117;-70
2022/04/29 03:43:27;;;;;;;;;;;12.30;40.50;;;;;;2375565;53;20283;-72
2022/04/29 03:45:53;;;;;;;;;;;12.30;40.60;;;;;;2627670;52;20130;-72
2022/04/29 03:48:20;;;;;;;;;;;12.30;40.60;;;;;;2375689;53;20069;-70
2022/04/29 03:50:46;;;;;;;;;;;12.30;40.60;;;;;;2375632;53;20081;-70
2022/04/29 03:53:12;;;;;;;;;;;12.20;40.60;;;;;;2479993;52;20372;-70
2022/04/29 03:55:39;;;;;;;;;;;12.20;40.70;;;;;;2374626;53;20350;-71
2022/04/29 03:58:05;;;;;;;;;;;12.20;40.70;;;;;;2375304;53;20319;-70
2022/04/29 04:00:32;;;;;;;;;;;12.10;40.70;;;;;;2504381;52;20357;-71
2022/04/29 04:03:09;;;;;;;;;;;12.10;40.70;;;;;;2359964;53;20126;-71
2022/04/29 04:05:35;;;;;;;;;;;12.10;40.80;;;;;;2375288;54;20205;-71
2022/04/29 04:08:01;;;;;;;;;;;12.00;40.70;;;;;;2375418;53;20118;-70
2022/04/29 04:10:31;;;;;;;;;;;12.00;40.70;;;;;;2388416;52;20061;-70
2022/04/29 04:12:57;;;;;;;;;;;12.00;40.80;;;;;;2546543;52;20069;-71
2022/04/29 04:15:23;;;;;;;;;;;11.90;40.80;;;;;;2374594;53;20065;-71
2022/04/29 04:17:49;;;;;;;;;;;11.90;40.90;;;;;;2375213;53;20085;-71
2022/04/29 04:20:16;;;;;;;;;;;11.90;40.90;;;;;;2567418;52;20299;-71
2022/04/29 04:22:43;;;;;;;;;;;11.80;40.90;;;;;;2519565;52;20121;-71
2022/04/29 04:25:12;;;;;;;;;;;11.80;41.00;;;;;;2375269;53;20085;-70
2022/04/29 04:27:38;;;;;;;;;;;11.80;41.10;;;;;;2408284;53;20336;-72
2022/04/29 04:30:05;;;;;;;;;;;11.70;41.10;;;;;;2375349;53;20069;-71
2022/04/29 04:32:34;;;;;;;;;;;11.70;41.20;;;;;;2428402;52;20145;-71
2022/04/29 04:35:01;;;;;;;;;;;11.70;41.30;;;;;;2510613;52;20078;-71
2022/04/29 04:37:28;;;;;;;;;;;11.70;41.30;;;;;;2444200;52;20086;-72
2022/04/29 04:39:58;;;;;;;;;;;11.60;41.30;;;;;;2374563;53;20142;-71
2022/04/29 04:42:25;;;;;;;;;;;11.60;41.40;;;;;;2553984;52;20077;-70
2022/04/29 04:44:51;;;;;;;;;;;11.60;41.50;;;;;;2374305;53;20082;-71
2022/04/29 04:47:17;;;;;;;;;;;11.60;41.60;;;;;;2375455;53;20134;-72
2022/04/29 04:49:44;;;;;;;;;;;11.60;41.60;;;;;;2375405;53;20113;-72
2022/04/29 04:52:10;;;;;;;;;;;11.60;41.70;;;;;;2424380;52;20089;-69
2022/04/29 04:54:37;;;;;;;;;;;11.70;41.80;;;;;;2377516;53;20099;-70
2022/04/29 04:57:03;;;;;;;;;;;11.70;41.90;;;;;;2364269;53;20089;-70
2022/04/29 04:59:30;;;;;;;;;;;11.70;41.90;;;;;;2482344;53;20057;-69
2022/04/29 05:01:56;;;;;;;;;;;11.70;42.00;;;;;;2374508;53;20078;-71
2022/04/29 05:04:22;;;;;;;;;;;11.70;42.10;;;;;;2375344;53;20085;-71
2022/04/29 05:06:49;;;;;;;;;;;11.70;42.20;;;;;;2374075;53;20398;-70
2022/04/29 05:09:15;;;;;;;;;;;11.80;42.30;;;;;;2475005;52;20109;-71
2022/04/29 05:11:41;;;;;;;;;;;11.80;42.40;;;;;;2627984;52;20528;-70
2022/04/29 05:14:22;;;;;;;;;;;11.80;42.50;;;;;;2375614;54;20607;-70
2022/04/29 05:16:48;;;;;;;;;;;11.80;42.60;;;;;;2382672;53;20496;-71
2022/04/29 05:19:15;;;;;;;;;;;11.90;42.80;;;;;;2403113;52;20057;-69
2022/04/29 05:21:41;;;;;;;;;;;11.90;42.80;;;;;;2480188;52;20105;-70
2022/04/29 05:24:07;;;;;;;;;;;12.00;42.90;;;;;;2628285;52;20758;-71
2022/04/29 05:26:34;;;;;;;;;;;12.00;42.90;;;;;;2375320;53;20626;-71
2022/04/29 05:29:00;;;;;;;;;;;12.10;43.00;;;;;;2375282;54;20085;-72
2022/04/29 05:31:26;;;;;;;;;;;12.10;43.00;;;;;;2425318;52;20178;-70
2022/04/29 05:33:52;;;;;;;;;;;12.20;43.10;;;;;;2516714;52;20090;-72
2022/04/29 05:36:18;;;;;;;;;;;12.20;43.10;;;;;;2375524;53;20085;-72
2022/04/29 05:44:14;;;;;;;;;;;12.40;43.30;;;;;;2375595;53;20076;-72
2022/04/29 05:46:42;;;;;;;;;;;12.50;43.40;;;;;;2375605;54;20081;-69
2022/04/29 05:49:08;;;;;;;;;;;12.60;43.50;;;;;;2384119;52;20062;-71
2022/04/29 05:51:34;;;;;;;;;;;12.70;43.60;;;;;;2375545;54;20121;-71
2022/04/29 05:54:00;;;;;;;;;;;12.70;43.70;;;;;;2378041;53;20314;-72
2022/04/29 05:56:29;;;;;;;;;;;12.80;43.80;;;;;;2375058;53;20141;-72
2022/04/29 05:58:56;;;;;;;;;;;12.90;43.90;;;;;;2621375;52;20118;-72
2022/04/29 06:01:22;;;;;;;;;;;13.00;44.00;;;;;;2379462;53;20097;-71
2022/04/29 06:03:48;;;;;;;;;;;13.10;44.00;;;;;;2375316;54;20074;-71
2022/04/29 06:06:16;;;;;;;;;;;13.10;44.00;;;;;;2382938;53;20638;-71
2022/04/29 06:08:42;;;;;;;;;;;13.20;44.10;;;;;;2377365;53;20081;-71
2022/04/29 06:11:11;;;;;;;;;;;13.30;44.10;;;;;;2606115;52;20069;-70
2022/04/29 06:13:38;;;;;;;;;;;13.40;44.10;;;;;;2375688;53;20077;-72
2022/04/29 06:16:10;;;;;;;;;;;13.50;44.10;;;;;;2380119;53;20137;-70
2022/04/29 06:18:37;;;;;;;;;;;13.60;44.10;;;;;;2610870;52;20141;-71
2022/04/29 06:21:03;;;;;;;;;;;13.70;44.10;;;;;;2527796;52;20086;-72
2022/04/29 06:23:29;;;;;;;;;;;13.80;44.10;;;;;;2628584;52;20062;-72
2022/04/29 06:25:56;;;;;;;;;;;13.90;44.20;;;;;;2374950;53;20053;-72
2022/04/29 06:28:22;;;;;;;;;;;13.90;44.20;;;;;;2376237;54;20141;-72
2022/04/29 06:30:49;;;;;;;;;;;14.00;44.20;;;;;;2555446;52;20126;-72
2022/04/29 06:33:20;;;;;;;;;;;14.10;44.30;;;;;;2471875;52;20129;-71
2022/04/29 06:35:47;;;;;;;;;;;14.20;44.30;;;;;;2454941;52;20082;-71
2022/04/29 06:38:14;;;;;;;;;;;14.30;44.30;;;;;;2479327;52;20093;-72
2022/04/29 06:40:40;;;;;;;;;;;14.40;44.40;;;;;;2375593;54;20141;-71
2022/04/29 06:43:06;;;;;;;;;;;14.50;44.50;;;;;;2375504;54;20137;-72
2022/04/29 06:45:33;;;;;;;;;;;14.60;44.60;;;;;;2375452;53;20440;-71
2022/04/29 06:47:59;;;;;;;;;;;14.70;44.50;;;;;;2628806;52;20483;-72
2022/04/29 06:50:25;;;;;;;;;;;14.80;44.50;;;;;;2485880;52;20126;-71
2022/04/29 06:52:52;;;;;;;;;;;14.80;44.40;;;;;;2366017;53;20117;-70
2022/04/29 06:55:18;;;;;;;;;;;14.90;44.50;;;;;;2374198;53;20074;-72
2022/04/29 06:57:46;;;;;;;;;;;15.00;44.50;;;;;;2628872;52;20405;-72
2022/04/29 07:00:13;;;;;;;;;;;15.00;44.50;;;;;;2374735;53;20078;-72
2022/04/29 07:02:39;;;;;;;;;;;15.10;44.70;;;;;;2375605;54;20117;-71
2022/04/29 07:05:08;;;;;;;;;;;15.30;45.00;;;;;;2377580;53;20149;-72
2022/04/29 07:07:34;;;;;;;;;;;15.40;45.00;;;;;;2379052;53;20615;-72
2022/04/29 07:10:00;;;;;;;;;;;15.50;44.80;;;;;;2626861;52;20362;-71
2022/04/29 07:12:27;;;;;;;;;;;15.70;44.70;;;;;;2375546;53;20073;-72
2022/04/29 07:14:53;;;;;;;;;;;15.80;44.80;;;;;;2375310;53;20121;-71
2022/04/29 07:17:23;;;;;;;;;;;15.90;44.70;;;;;;2385966;52;20085;-72
2022/04/29 07:19:50;;;;;;;;;;;16.00;44.70;;;;;;2375797;54;20553;-72
2022/04/29 07:22:25;;;;;;;;;;;16.10;44.70;;;;;;2378113;53;20340;-73
2022/04/29 07:24:51;;;;;;;;;;;16.30;44.90;;;;;;2375579;54;20113;-73
2022/04/29 07:27:19;;;;;;;;;;;16.40;45.00;;;;;;2379595;52;20065;-71
2022/04/29 07:29:46;;;;;;;;;;;16.60;45.10;;;;;;2442232;52;20693;-72
2022/04/29 07:32:12;;;;;;;;;;;16.70;45.10;;;;;;2357181;53;20081;-70
2022/04/29 07:42:56;;;;;;;;;;;17.30;44.70;;;;;;2377830;53;20062;-72
2022/04/29 07:45:22;;;;;;;;;;;17.50;44.60;;;;;;2375725;53;20597;-71
2022/04/29 07:47:50;;;;;;;;;;;17.60;44.60;;;;;;2379178;52;20121;-72
2022/04/29 07:50:16;;;;;;;;;;;17.70;44.70;;;;;;2436147;52;20181;-72
2022/04/29 07:52:42;;;;;;;;;;;17.70;44.50;;;;;;2376106;53;20603;-72
2022/04/29 07:55:08;;;;;;;;;;;17.80;44.50;;;;;;2495881;52;20054;-70
2022/04/29 07:57:35;;;;;;;;;;;17.90;44.40;;;;;;2467150;52;20082;-72
2022/04/29 08:00:06;;;;;;;;;;;17.90;44.30;;;;;;2486410;52;20069;-70
2022/04/29 08:02:32;;;;;;;;;;;17.90;44.30;;;;;;2364289;53;20075;-73
2022/04/29 08:04:58;;;;;;;;;;;18.00;44.20;;;;;;2363149;53;20078;-74
2022/04/29 08:07:25;;;;;;;;;;;18.10;44.30;;;;;;2375651;53;20113;-73
2022/04/29 08:09:51;;;;;;;;;;;18.10;44.30;;;;;;2365221;53;20125;-74
2022/04/29 08:12:17;;;;;;;;;;;18.20;44.40;;;;;;2376975;53;20090;-73
2022/04/29 08:14:44;;;;;;;;;;;18.30;44.60;;;;;;2581668;52;20748;-73
2022/04/29 08:17:14;;;;;;;;;;;18.40;44.80;;;;;;2390004;52;20114;-75
2022/04/29 08:19:41;;;;;;;;;;;18.50;44.70;;;;;;2360361;53;20077;-74
2022/04/29 08:22:07;;;;;;;;;;;18.60;44.80;;;;;;2445605;52;20129;-73
2022/04/29 08:24:33;;;;;;;;;;;18.70;44.80;;;;;;2374765;53;20068;-73
2022/04/29 08:27:00;;;;;;;;;;;18.90;44.80;;;;;;2375374;54;20097;-74
2022/04/29 08:29:26;;;;;;;;;;;19.00;44.90;;;;;;2585955;52;20162;-72
2022/04/29 08:31:52;;;;;;;;;;;19.20;45.60;;;;;;2375036;54;20141;-73
2022/04/29 08:34:19;;;;;;;;;;;19.40;45.10;;;;;;2378549;53;20081;-73
2022/04/29 08:36:48;;;;;;;;;;;19.50;45.20;;;;;;2446791;52;20107;-73
2022/04/29 08:39:14;;;;;;;;;;;19.70;45.30;;;;;;2367051;53;20070;-73
2022/04/29 08:41:41;;;;;;;;;;;19.90;46.00;;;;;;2374981;54;20093;-73
2022/04/29 08:44:08;;;;;;;;;;;20.20;45.70;;;;;;2375030;54;20086;-71
2022/04/29 08:46:35;;;;;;;;;;;20.40;45.80;;;;;;2374925;54;20468;-73
2022/04/29 08:49:01;;;;;;;;;;;20.70;45.80;;;;;;2376180;53;20065;-74
2022/04/29 08:51:29;;;;;;;;;;;20.90;45.50;;;;;;2391185;52;20552;-74
2022/04/29 08:53:57;;;;;;;;;;;21.00;45.30;;;;;;2592145;52;20884;-73
2022/04/29 08:59:09;;;;;;;;;;;21.40;45.40;;;;;;2485900;52;20169;-73
2022/04/29 09:01:38;;;;;;;;;;;21.50;45.10;;;;;;2377211;53;20077;-74
2022/04/29 09:04:05;;;;;;;;;;;21.60;45.00;;;;;;2378458;53;20077;-73
2022/04/29 09:06:31;;;;;;;;;;;21.70;45.00;;;;;;2373169;53;20153;-74
2022/04/29 09:09:06;;;;;;;;;;;21.90;45.10;;;;;;2375397;54;20413;-75
2022/04/29 09:11:32;;;;;;;;;;;22.00;44.70;;;;;;2375385;54;20086;-73
2022/04/29 09:13:58;;;;;;;;;;;22.20;44.60;;;;;;2375628;54;20137;-74
2022/04/29 09:16:26;;;;;;;;;;;22.40;44.60;;;;;;2383032;52;20138;-74
2022/04/29 09:18:54;;;;;;;;;;;22.60;44.60;;;;;;2375151;54;20126;-73
2022/04/29 09:21:24;;;;;;;;;;;22.70;44.60;;;;;;2375730;53;20085;-73
2022/04/29 09:23:56;;;;;;;;;;;22.90;44.50;;;;;;2375108;54;20073;-73
2022/04/29 09:26:30;;;;;;;;;;;23.10;44.20;;;;;;2375131;53;20074;-72
2022/04/29 09:30:48;;;;;;;;;;;23.20;44.00;;;;;;2382235;52;20121;-73
2022/04/29 09:33:18;;;;;;;;;;;23.40;43.70;;;;;;2378816;53;20129;-76
2022/04/29 09:35:45;;;;;;;;;;;23.60;43.50;;;;;;2371806;53;20585;-73
2022/04/29 09:40:59;;;;;;;;;;;23.90;43.30;;;;;;2375487;53;20574;-75
2022/04/29 09:43:42;;;;;;;;;;;24.00;43.10;;;;;;2375703;54;20389;-73
2022/04/29 09:46:30;;;;;;;;;;;24.20;43.00;;;;;;2375568;54;20085;-74
2022/04/29 09:48:57;;;;;;;;;;;24.30;42.60;;;;;;2452677;52;20094;-73
2022/04/29 09:51:41;;;;;;;;;;;24.40;42.40;;;;;;2407723;52;20085;-73
2022/04/29 09:54:26;;;;;;;;;;;24.40;42.10;;;;;;2631205;52;20125;-73
2022/04/29 09:57:11;;;;;;;;;;;24.50;41.90;;;;;;2377281;53;20354;-73
2022/04/29 09:59:41;;;;;;;;;;;24.50;41.80;;;;;;2386778;52;20105;-76
2022/04/29 10:02:08;;;;;;;;;;;24.60;41.90;;;;;;2375190;53;20082;-74
2022/04/29 10:04:40;;;;;;;;;;;24.60;41.80;;;;;;2379744;53;20209;-74
2022/04/29 10:07:08;;;;;;;;;;;24.60;41.70;;;;;;2375487;54;20066;-73
2022/04/29 10:09:35;;;;;;;;;;;24.60;41.80;;;;;;2377567;53;20082;-73
2022/04/29 10:12:13;;;;;;;;;;;24.60;41.70;;;;;;2372107;53;20058;-74
2022/04/29 10:14:40;;;;;;;;;;;24.60;41.60;;;;;;2468796;52;20173;-73
2022/04/29 10:22:40;;;;;;;;;;;24.60;41.60;;;;;;2366276;53;20805;-74
2022/04/29 10:25:09;;;;;;;;;;;24.50;41.50;;;;;;2618964;52;20897;-75
2022/04/29 10:27:39;;;;;;;;;;;24.50;41.50;;;;;;2427598;52;20213;-76
2022/04/29 10:30:05;;;;;;;;;;;24.60;41.50;;;;;;2370537;53;20098;-73
2022/04/29 10:32:57;;;;;;;;;;;24.60;41.50;;;;;;2367011;53;20237;-75
2022/04/29 10:38:55;;;;;;;;;;;24.70;41.50;;;;;;2366786;54;20485;-74
2022/04/29 10:41:26;;;;;;;;;;;24.70;41.30;;;;;;2367455;53;20069;-77
2022/04/29 10:44:14;;;;;;;;;;;24.90;41.30;;;;;;2366478;53;20062;-74
2022/04/29 10:46:41;;;;;;;;;;;25.00;41.40;;;;;;2367508;54;20212;-74
2022/04/29 10:50:59;;;;;;;;;;;25.10;41.30;;;;;;2589458;52;21028;-74
2022/04/29 10:53:33;;;;;;;;;;;25.20;41.20;;;;;;2493352;52;20058;-73
2022/04/29 10:56:18;;;;;;;;;;;25.40;41.20;;;;;;2368073;53;20113;-73
2022/04/29 10:58:44;;;;;;;;;;;25.50;40.90;;;;;;2373727;53;20214;-73
2022/04/29 11:01:56;;;;;;;;;;;25.60;40.60;;;;;;2424635;52;20237;-73
2022/04/29 11:04:41;;;;;;;;;;;25.70;40.20;;;;;;2366601;53;20413;-76
2022/04/29 11:07:17;;;;;;;;;;;25.70;40.00;;;;;;2370350;53;20074;-73
2022/04/29 11:09:50;;;;;;;;;;;25.70;39.60;;;;;;2368134;53;20090;-74
2022/04/29 11:12:31;;;;;;;;;;;25.70;39.80;;;;;;2365274;53;20129;-74
2022/04/29 11:16:52;;;;;;;;;;;25.70;39.90;;;;;;2557663;52;20837;-75
2022/04/29 11:19:22;;;;;;;;;;;25.70;39.50;;;;;;2367947;54;20073;-77
2022/04/29 11:24:42;;;;;;;;;;;25.60;39.90;;;;;;2488478;52;20066;-75
2022/04/29 11:27:08;;;;;;;;;;;25.60;39.30;;;;;;2367907;54;20066;-74
2022/04/29 11:29:44;;;;;;;;;;;25.60;39.30;;;;;;2368158;54;20081;-76
2022/04/29 11:32:12;;;;;;;;;;;25.50;39.00;;;;;;2371112;53;20133;-76
2022/04/29 11:34:51;;;;;;;;;;;25.50;39.00;;;;;;2367299;53;20208;-75
2022/04/29 11:37:23;;;;;;;;;;;25.50;38.90;;;;;;2481013;52;20489;-74
2022/04/29 11:39:50;;;;;;;;;;;25.50;39.10;;;;;;2367839;53;20078;-75
2022/04/29 11:42:17;;;;;;;;;;;25.50;39.10;;;;;;2472277;52;20113;-75
2022/04/29 11:44:45;;;;;;;;;;;25.50;39.20;;;;;;2383090;52;20098;-78
2022/04/29 11:47:11;;;;;;;;;;;25.50;39.20;;;;;;2390931;52;20085;-75
2022/04/29 11:49:38;;;;;;;;;;;25.60;39.20;;;;;;2376248;52;20609;-76
2022/04/29 11:53:56;;;;;;;;;;;25.60;39.70;;;;;;2453265;52;20829;-75
2022/04/29 11:56:22;;;;;;;;;;;25.60;38.80;;;;;;2366107;53;20090;-75
2022/04/29 11:58:50;;;;;;;;;;;25.70;38.80;;;;;;2384632;52;20189;-79
2022/04/29 12:01:17;;;;;;;;;;;25.70;38.90;;;;;;2364145;53;20429;-75
2022/04/29 12:03:47;;;;;;;;;;;25.70;38.60;;;;;;2366863;53;20086;-75
2022/04/29 12:06:13;;;;;;;;;;;25.70;38.70;;;;;;2367349;53;20069;-74
2022/04/29 12:08:41;;;;;;;;;;;25.70;38.60;;;;;;2367430;54;20374;-76
2022/04/29 12:11:08;;;;;;;;;;;25.80;38.60;;;;;;2367832;54;20161;-75
2022/04/29 12:13:36;;;;;;;;;;;25.80;38.40;;;;;;2367633;53;20077;-76
2022/04/29 12:16:04;;;;;;;;;;;25.90;38.50;;;;;;2370123;54;20224;-76
2022/04/29 12:18:41;;;;;;;;;;;25.90;38.50;;;;;;2468208;52;20921;-75
2022/04/29 12:21:09;;;;;;;;;;;25.90;38.30;;;;;;2367840;53;20129;-77
2022/04/29 12:23:36;;;;;;;;;;;25.90;38.10;;;;;;2371256;53;20192;-75
2022/04/29 12:26:04;;;;;;;;;;;25.90;38.20;;;;;;2374699;53;20077;-75
2022/04/29 12:28:31;;;;;;;;;;;25.90;38.00;;;;;;2359721;53;20189;-74
2022/04/29 12:36:55;;;;;;;;;;;25.80;37.60;;;;;;2368161;54;20655;-74
2022/04/29 12:39:24;;;;;;;;;;;25.80;37.50;;;;;;2557405;52;20078;-76
2022/04/29 12:41:56;;;;;;;;;;;25.70;37.40;;;;;;2367320;54;20173;-74
2022/04/29 12:47:23;;;;;;;;;;;25.70;37.60;;;;;;2419944;53;20062;-74
2022/04/29 12:49:51;;;;;;;;;;;25.70;38.00;;;;;;2371499;53;20125;-76
2022/04/29 12:52:18;;;;;;;;;;;25.80;37.90;;;;;;2367315;53;20074;-74
2022/04/29 12:54:45;;;;;;;;;;;25.80;37.80;;;;;;2461761;52;20106;-74
2022/04/29 12:57:11;;;;;;;;;;;25.80;37.70;;;;;;2415450;52;20061;-75
2022/04/29 12:59:40;;;;;;;;;;;25.90;37.70;;;;;;2534688;52;20073;-75
2022/04/29 13:02:07;;;;;;;;;;;25.90;37.80;;;;;;2368102;53;20074;-74
2022/04/29 13:04:34;;;;;;;;;;;25.90;37.50;;;;;;2368083;54;20073;-74
2022/04/29 13:07:03;;;;;;;;;;;25.90;37.40;;;;;;2611040;52;20062;-76
2022/04/29 13:09:30;;;;;;;;;;;26.00;37.40;;;;;;2510036;52;20070;-75
2022/04/29 13:11:56;;;;;;;;;;;26.00;37.40;;;;;;2372427;52;20124;-74
2022/04/29 13:14:22;;;;;;;;;;;26.00;37.20;;;;;;2369102;54;20069;-76
2022/04/29 13:16:48;;;;;;;;;;;26.00;37.10;;;;;;2420530;52;20165;-75
2022/04/29 13:19:16;;;;;;;;;;;26.00;36.80;;;;;;2434461;52;20073;-73
2022/04/29 13:21:42;;;;;;;;;;;25.90;36.50;;;;;;2429460;52;20822;-74
2022/04/29 13:24:09;;;;;;;;;;;25.80;36.40;;;;;;2371381;53;20153;-74
2022/04/29 13:26:36;;;;;;;;;;;25.70;36.40;;;;;;2460082;52;20137;-74
2022/04/29 13:29:03;;;;;;;;;;;25.60;36.30;;;;;;2363944;53;20110;-78
2022/04/29 13:31:32;;;;;;;;;;;25.50;36.20;;;;;;2372736;53;20096;-76
2022/04/29 13:33:59;;;;;;;;;;;25.50;36.30;;;;;;2401235;53;20073;-75
2022/04/29 13:36:26;;;;;;;;;;;25.40;36.30;;;;;;2368654;54;20125;-73
2022/04/29 13:38:52;;;;;;;;;;;25.30;36.90;;;;;;2367510;54;20184;-73
2022/04/29 13:41:18;;;;;;;;;;;25.20;36.50;;;;;;2370761;53;20806;-75
2022/04/29 13:43:48;;;;;;;;;;;25.20;36.50;;;;;;2369642;53;20073;-76
2022/04/29 13:46:30;;;;;;;;;;;25.10;36.50;;;;;;2438524;52;20070;-73
2022/04/29 13:48:56;;;;;;;;;;;25.10;36.50;;;;;;2377881;53;20157;-76
2022/04/29 13:51:23;;;;;;;;;;;25.00;36.60;;;;;;2377997;53;20050;-75
2022/04/29 13:53:49;;;;;;;;;;;25.00;36.70;;;;;;2378080;53;20785;-75
2022/04/29 13:56:15;;;;;;;;;;;25.00;36.70;;;;;;2376358;56;20058;-78
2022/04/29 13:58:43;;;;;;;;;;;25.00;36.80;;;;;;2408888;52;20326;-74
2022/04/29 14:01:14;;;;;;;;;;;25.00;36.90;;;;;;2368628;53;20078;-76
2022/04/29 14:03:41;;;;;;;;;;;25.00;36.90;;;;;;2365951;53;20134;-73
2022/04/29 14:06:07;;;;;;;;;;;25.10;36.90;;;;;;2488897;52;21235;-74
2022/04/29 14:08:34;;;;;;;;;;;25.10;36.90;;;;;;2394443;52;20148;-76
2022/04/29 14:11:02;;;;;;;;;;;25.10;36.70;;;;;;2358928;53;20218;-76
2022/04/29 14:13:28;;;;;;;;;;;25.10;36.50;;;;;;2378473;53;20121;-76
2022/04/29 14:15:54;;;;;;;;;;;25.00;36.40;;;;;;2375206;53;20686;-76
2022/04/29 14:18:21;;;;;;;;;;;25.00;36.50;;;;;;2411559;52;20477;-75
2022/04/29 14:20:48;;;;;;;;;;;25.00;36.90;;;;;;2414778;52;20081;-78
2022/04/29 14:23:14;;;;;;;;;;;25.00;36.40;;;;;;2377982;53;20346;-75
2022/04/29 14:25:40;;;;;;;;;;;24.90;36.20;;;;;;2400948;52;20069;-75
2022/04/29 14:28:06;;;;;;;;;;;24.90;36.20;;;;;;2379769;53;20081;-78
2022/04/29 14:30:33;;;;;;;;;;;24.80;36.20;;;;;;2396096;52;20078;-75
2022/04/29 14:32:59;;;;;;;;;;;24.80;36.10;;;;;;2385727;52;20062;-76
2022/04/29 14:35:25;;;;;;;;;;;24.60;36.80;;;;;;2365295;53;20057;-77
2022/04/29 14:37:52;;;;;;;;;;;24.70;36.10;;;;;;2389036;52;20580;-77
2022/04/29 14:40:18;;;;;;;;;;;24.60;36.00;;;;;;2388388;52;20646;-75
2022/04/29 14:42:44;;;;;;;;;;;24.60;36.10;;;;;;2376235;53;20074;-75
2022/04/29 14:45:11;;;;;;;;;;;24.50;36.00;;;;;;2379045;53;20081;-76
2022/04/29 14:47:37;;;;;;;;;;;24.50;36.10;;;;;;2381112;53;20057;-75
2022/04/29 14:50:04;;;;;;;;;;;24.40;36.00;;;;;;2463361;52;20129;-76
2022/04/29 14:52:31;;;;;;;;;;;24.40;36.10;;;;;;2378326;53;20113;-75
2022/04/29 14:54:57;;;;;;;;;;;24.40;36.00;;;;;;2402172;52;20191;-75
2022/04/29 14:57:24;;;;;;;;;;;24.30;36.00;;;;;;2370190;53;20141;-75
2022/04/29 14:59:54;;;;;;;;;;;24.30;36.10;;;;;;2376944;53;20078;-77
2022/04/29 15:02:20;;;;;;;;;;;24.20;36.00;;;;;;2376989;53;20117;-78
2022/04/29 15:04:53;;;;;;;;;;;24.20;36.10;;;;;;2486522;52;20065;-78
2022/04/29 15:07:22;;;;;;;;;;;24.20;36.00;;;;;;2376374;53;20144;-75